Time;durP1;ratioP1;P1;durP2;ratioP2;P2;SDS_P1;SDS_P2;PMS_P1;PMS_P2;Temp;Humidity;BMP_temperature;BMP_pressure;BME280_temperature;BME280_humidity;BME280_pressure;Samples;Min_cycle;Max_cycle;Signal;HPM_P1;HPM_P2
2023/09/13 00:01:17;;;;;;;31.00;17.15;;;18.20;99.90;;;;;;6159509;23;20017;-82
2023/09/13 00:03:42;;;;;;;28.25;17.60;;;18.20;99.90;;;;;;6158834;23;20017;-82
2023/09/13 00:06:26;;;;;;;32.75;17.27;;;18.10;99.90;;;;;;6158720;23;20140;-82
2023/09/13 00:08:52;;;;;;;;;;;18.10;99.90;;;;;;6159592;23;20513;-82
2023/09/13 00:11:20;;;;;;;33.60;17.38;;;17.90;99.90;;;;;;6159378;23;19919;-82
2023/09/13 00:13:58;;;;;;;34.25;16.90;;;18.10;99.90;;;;;;6157829;23;20204;-82
2023/09/13 00:16:24;;;;;;;28.27;16.63;;;18.20;99.90;;;;;;6159666;23;20028;-82
2023/09/13 00:18:52;;;;;;;32.35;16.67;;;18.10;99.90;;;;;;6159367;23;20017;-82
2023/09/13 00:21:20;;;;;;;30.77;16.35;;;17.80;99.90;;;;;;6158308;23;20017;-82
2023/09/13 00:23:49;;;;;;;31.58;16.30;;;18.10;99.90;;;;;;6158616;23;20021;-82
2023/09/13 00:26:42;;;;;;;31.27;17.10;;;18.10;99.90;;;;;;6185878;23;20017;-82
2023/09/13 00:29:08;;;;;;;32.38;16.02;;;17.80;99.90;;;;;;6155829;23;20090;-82
2023/09/13 00:31:39;;;;;;;29.45;16.15;;;18.10;99.90;;;;;;6158297;23;20462;-82
2023/09/13 00:34:07;;;;;;;31.85;16.02;;;18.10;99.90;;;;;;6184386;23;20069;-82
2023/09/13 00:36:55;;;;;;;30.73;15.60;;;18.10;99.90;;;;;;6185576;23;20020;-82
2023/09/13 00:39:29;;;;;;;31.23;14.85;;;18.10;99.90;;;;;;6186022;23;20080;-82
2023/09/13 00:45:41;;;;;;;27.92;14.68;;;18.10;99.90;;;;;;6153221;23;20025;-82
2023/09/13 00:48:08;;;;;;;26.70;13.90;;;18.10;99.90;;;;;;6157914;23;20031;-83
2023/09/13 00:50:39;;;;;;;27.63;14.60;;;18.10;99.90;;;;;;6158712;23;20105;-82
2023/09/13 00:53:06;;;;;;;29.85;14.93;;;18.10;99.90;;;;;;6159469;23;20028;-83
2023/09/13 00:55:32;;;;;;;27.35;13.68;;;18.10;99.90;;;;;;6158233;23;20009;-82
2023/09/13 00:57:58;;;;;;;29.15;14.27;;;18.10;99.90;;;;;;6158378;23;20017;-82
2023/09/13 01:00:46;;;;;;;24.65;13.63;;;18.10;99.90;;;;;;6158902;23;20488;-82
2023/09/13 01:03:25;;;;;;;26.48;14.05;;;18.10;99.90;;;;;;6158533;23;20028;-82
2023/09/13 01:08:22;;;;;;;29.17;14.00;;;18.10;99.90;;;;;;6214729;23;20516;-82
2023/09/13 01:10:48;;;;;;;28.75;13.45;;;18.00;99.90;;;;;;6211996;23;20021;-82
2023/09/13 01:13:34;;;;;;;24.02;12.98;;;17.70;99.90;;;;;;6213738;23;20015;-82
2023/09/13 01:16:39;;;;;;;30.27;13.18;;;18.10;99.90;;;;;;6212649;23;20095;-82
2023/09/13 01:19:33;;;;;;;28.67;12.88;;;18.00;99.90;;;;;;6213279;23;20024;-82
2023/09/13 01:22:14;;;;;;;22.15;11.80;;;18.00;99.90;;;;;;6213954;23;20337;-82
2023/09/13 01:25:21;;;;;;;22.27;11.60;;;18.00;99.90;;;;;;6214166;23;20099;-82
2023/09/13 01:28:14;;;;;;;24.13;11.05;;;17.90;99.90;;;;;;6213438;23;20012;-82
2023/09/13 01:30:46;;;;;;;25.90;10.80;;;17.90;99.90;;;;;;6212008;23;20039;-82
2023/09/13 01:33:15;;;;;;;22.05;10.85;;;18.00;99.90;;;;;;6213701;23;20016;-82
2023/09/13 01:35:48;;;;;;;23.27;10.10;;;17.90;99.90;;;;;;6212890;23;20445;-82
2023/09/13 01:38:27;;;;;;;21.95;10.15;;;18.00;99.90;;;;;;6212763;23;20017;-82
2023/09/13 01:41:07;;;;;;;21.38;9.00;;;17.90;99.90;;;;;;6213071;23;20023;-82
2023/09/13 01:44:10;;;;;;;20.10;9.05;;;17.90;99.90;;;;;;6217537;23;20020;-82
2023/09/13 01:46:54;;;;;;;21.88;8.68;;;17.80;99.90;;;;;;6218198;23;20066;-82
2023/09/13 01:49:22;;;;;;;22.33;8.70;;;17.80;99.90;;;;;;6218634;23;20027;-82
2023/09/13 01:51:49;;;;;;;23.48;9.00;;;17.70;99.90;;;;;;6217195;23;20059;-82
2023/09/13 01:54:44;;;;;;;;;;;;;;;;;;;;;
2023/09/13 01:57:28;;;;;;;21.42;8.68;;;17.90;99.90;;;;;;6133290;23;20356;-82
2023/09/13 01:59:54;;;;;;;17.70;7.95;;;17.70;99.90;;;;;;6217058;23;20055;-82
2023/09/13 02:02:19;;;;;;;18.90;7.10;;;17.70;99.90;;;;;;6218387;23;20436;-82
2023/09/13 02:04:54;;;;;;;17.13;6.95;;;17.60;99.90;;;;;;6217710;23;20043;-82
2023/09/13 02:07:20;;;;;;;19.15;7.13;;;17.60;99.90;;;;;;6216659;23;20016;-83
2023/09/13 02:09:58;;;;;;;15.93;6.50;;;18.10;99.90;;;;;;6217701;23;20016;-82
2023/09/13 02:12:46;;;;;;;14.32;6.28;;;17.60;99.90;;;;;;6217498;23;20065;-82
2023/09/13 02:15:12;;;;;;;15.27;6.18;;;18.10;99.90;;;;;;6218322;23;20048;-82
2023/09/13 02:17:50;;;;;;;15.82;5.60;;;17.50;99.90;;;;;;6217873;23;20039;-82
2023/09/13 02:20:34;;;;;;;16.30;5.53;;;17.50;99.90;;;;;;6217443;23;20468;-82
2023/09/13 02:23:00;;;;;;;13.95;5.45;;;17.40;99.90;;;;;;6217326;23;20095;-82
2023/09/13 02:25:54;;;;;;;11.93;5.20;;;17.50;99.90;;;;;;6218502;23;20039;-82
2023/09/13 02:28:20;;;;;;;18.02;5.13;;;17.40;99.90;;;;;;6217413;23;20020;-82
2023/09/13 02:30:52;;;;;;;12.05;4.82;;;17.40;99.90;;;;;;6217858;23;20023;-82
2023/09/13 02:33:20;;;;;;;14.63;4.82;;;17.30;99.90;;;;;;6218239;23;20027;-82
2023/09/13 02:35:59;;;;;;;;;;;;;;;;;;;;;
2023/09/13 02:38:56;;;;;;;14.70;4.72;;;17.30;99.90;;;;;;6157533;23;20026;-82
2023/09/13 02:41:24;;;;;;;10.80;4.20;;;17.20;99.90;;;;;;6217559;23;20013;-82
2023/09/13 02:44:02;;;;;;;13.57;4.30;;;17.20;99.90;;;;;;6218108;23;20023;-82
2023/09/13 02:46:29;;;;;;;12.93;4.07;;;17.20;99.90;;;;;;6218204;23;20081;-82
2023/09/13 02:48:55;;;;;;;12.02;4.55;;;17.10;99.90;;;;;;6218737;23;20016;-82
2023/09/13 02:51:30;;;;;;;14.60;4.30;;;17.10;99.90;;;;;;6220043;23;20008;-82
2023/09/13 02:54:14;;;;;;;11.20;3.97;;;17.10;99.90;;;;;;6219776;23;20054;-82
2023/09/13 02:56:44;;;;;;;12.18;4.40;;;17.40;99.90;;;;;;6218717;23;20091;-82
2023/09/13 02:59:16;;;;;;;14.02;4.35;;;17.10;99.90;;;;;;6211950;23;20020;-83
2023/09/13 03:01:53;;;;;;;15.25;4.30;;;17.10;99.90;;;;;;6218595;23;20016;-82
2023/09/13 03:04:51;;;;;;;13.68;4.50;;;17.00;99.90;;;;;;6220138;23;20020;-82
2023/09/13 03:07:42;;;;;;;12.50;4.10;;;16.50;99.90;;;;;;6219683;23;20091;-82
2023/09/13 03:10:08;;;;;;;13.73;4.55;;;16.90;99.90;;;;;;6218943;23;20047;-83
2023/09/13 03:13:06;;;;;;;14.23;4.57;;;17.00;99.90;;;;;;6219424;23;20141;-82
2023/09/13 03:15:47;;;;;;;13.48;4.35;;;16.90;99.90;;;;;;6194407;23;20063;-82
2023/09/13 03:18:13;;;;;;;15.32;4.97;;;16.70;99.90;;;;;;6219771;23;20020;-82
2023/09/13 03:20:40;;;;;;;14.65;4.65;;;16.60;99.90;;;;;;6219120;23;20016;-82
2023/09/13 03:23:09;;;;;;;13.80;4.50;;;16.80;99.90;;;;;;6219103;23;20444;-82
2023/09/13 03:25:43;;;;;;;14.80;4.50;;;17.10;99.90;;;;;;6219505;23;20337;-82
2023/09/13 03:28:29;;;;;;;12.80;4.70;;;16.80;99.90;;;;;;6219909;23;20016;-82
2023/09/13 03:31:22;;;;;;;13.68;4.65;;;16.80;99.90;;;;;;6218639;23;20020;-82
2023/09/13 03:33:59;;;;;;;13.63;4.78;;;16.80;99.90;;;;;;6164472;23;20077;-82
2023/09/13 03:36:28;;;;;;;14.43;4.80;;;16.80;99.90;;;;;;6219891;23;20035;-82
2023/09/13 03:39:09;;;;;;;14.07;4.90;;;16.80;99.90;;;;;;6218170;23;20388;-82
2023/09/13 03:41:35;;;;;;;16.88;5.68;;;16.80;99.90;;;;;;6219251;23;20337;-82
2023/09/13 03:44:13;;;;;;;14.93;5.65;;;16.80;99.90;;;;;;6218451;23;20020;-82
2023/09/13 03:46:39;;;;;;;11.90;5.10;;;16.70;99.90;;;;;;6219190;23;20016;-82
2023/09/13 03:49:04;;;;;;;13.57;4.50;;;16.70;99.90;;;;;;6218966;23;20019;-82
2023/09/13 03:51:39;;;;;;;13.40;5.03;;;16.70;99.90;;;;;;6218573;23;20020;-82
2023/09/13 03:54:05;;;;;;;14.77;5.80;;;16.70;99.90;;;;;;6219526;23;20336;-82
2023/09/13 03:56:31;;;;;;;13.40;5.35;;;16.70;99.90;;;;;;6219370;23;20019;-82
2023/09/13 03:59:12;;;;;;;13.98;5.55;;;16.70;99.90;;;;;;6217318;23;20330;-82
2023/09/13 04:01:55;;;;;;;15.98;5.70;;;16.70;99.90;;;;;;6218903;23;20383;-82
2023/09/13 04:04:41;;;;;;;17.50;5.40;;;16.70;99.90;;;;;;6219006;23;20019;-82
2023/09/13 04:07:38;;;;;;;14.82;5.88;;;16.70;99.90;;;;;;6216632;23;20020;-82
2023/09/13 04:10:04;;;;;;;13.93;5.60;;;16.70;99.90;;;;;;6219457;23;20035;-82
2023/09/13 04:12:35;;;;;;;14.15;5.55;;;16.70;99.90;;;;;;6218190;23;20452;-82
2023/09/13 04:15:16;;;;;;;17.85;6.43;;;16.70;99.90;;;;;;6219385;23;20044;-82
2023/09/13 04:17:50;;;;;;;14.82;6.25;;;16.60;99.90;;;;;;6218850;23;20019;-82
2023/09/13 04:20:16;;;;;;;12.60;5.93;;;16.60;99.90;;;;;;6218513;23;20016;-82
2023/09/13 04:22:54;;;;;;;12.98;5.70;;;16.60;99.90;;;;;;6218428;23;20051;-82
2023/09/13 04:25:36;;;;;;;12.38;5.70;;;16.60;99.90;;;;;;6219370;23;20078;-82
2023/09/13 04:28:20;;;;;;;13.77;5.78;;;16.60;99.90;;;;;;6217895;23;20016;-82
2023/09/13 04:30:45;;;;;;;14.75;6.43;;;16.60;99.90;;;;;;6219446;23;20020;-82
2023/09/13 04:33:11;;;;;;;15.45;5.57;;;16.60;99.90;;;;;;6218492;23;20012;-82
2023/09/13 04:35:54;;;;;;;14.38;6.03;;;16.60;99.90;;;;;;6218935;23;20143;-82
2023/09/13 04:38:20;;;;;;;15.95;5.45;;;16.60;99.90;;;;;;6219265;23;20023;-82
2023/09/13 04:41:21;;;;;;;15.43;5.85;;;16.60;99.90;;;;;;6217939;23;20016;-82
2023/09/13 04:43:49;;;;;;;18.80;6.00;;;16.50;99.90;;;;;;6206262;23;20052;-82
2023/09/13 04:46:24;;;;;;;15.40;5.82;;;16.50;99.90;;;;;;6218824;23;20627;-83
2023/09/13 04:48:55;;;;;;;16.40;6.13;;;16.50;99.90;;;;;;6217689;23;20072;-82
2023/09/13 04:51:39;;;;;;;11.90;5.35;;;16.50;99.90;;;;;;6219094;23;20504;-82
2023/09/13 04:54:05;;;;;;;17.92;5.82;;;16.50;99.90;;;;;;6217884;23;20012;-82
2023/09/13 04:56:31;;;;;;;17.80;5.75;;;16.50;99.90;;;;;;6218819;23;20047;-82
2023/09/13 04:58:57;;;;;;;13.02;5.28;;;16.40;99.90;;;;;;6218303;23;20020;-82
2023/09/13 05:01:26;;;;;;;12.02;5.65;;;16.60;99.90;;;;;;6218266;23;20119;-82
2023/09/13 05:03:56;;;;;;;12.98;4.97;;;16.50;99.90;;;;;;6219627;23;20012;-83
2023/09/13 05:06:22;;;;;;;15.05;5.72;;;17.00;99.90;;;;;;6219138;23;20031;-83
2023/09/13 05:08:50;;;;;;;14.50;5.00;;;16.50;99.90;;;;;;6217554;23;20035;-82
2023/09/13 05:11:16;;;;;;;14.40;4.95;;;17.20;99.90;;;;;;6218851;23;20455;-82
2023/09/13 05:13:42;;;;;;;12.45;4.90;;;16.40;99.90;;;;;;6218181;23;20070;-83
2023/09/13 05:16:08;;;;;;;12.93;5.10;;;16.40;99.90;;;;;;6218076;23;20016;-82
2023/09/13 05:18:33;;;;;;;12.77;4.70;;;16.40;99.90;;;;;;6218442;23;20008;-82
2023/09/13 05:20:59;;;;;;;16.50;5.63;;;16.40;99.90;;;;;;6218755;23;20113;-82
2023/09/13 05:24:12;;;;;;;14.05;5.30;;;16.70;99.90;;;;;;6218127;23;20101;-84
2023/09/13 05:26:41;;;;;;;13.18;5.00;;;16.40;99.90;;;;;;6068444;23;20457;-84
2023/09/13 05:29:19;;;;;;;16.38;5.18;;;16.40;99.90;;;;;;6068941;23;20029;-84
2023/09/13 05:36:13;;;;;;;15.82;5.00;;;16.40;99.90;;;;;;5896400;24;20074;-85
2023/09/13 05:39:21;;;;;;;14.73;5.15;;;16.40;99.90;;;;;;5906875;24;20021;-85
2023/09/13 05:42:26;;;;;;;13.95;5.07;;;16.40;99.90;;;;;;5981536;23;20018;-86
2023/09/13 05:45:42;;;;;;;13.52;5.40;;;16.40;99.90;;;;;;6006512;23;20123;-84
2023/09/13 05:48:13;;;;;;;14.10;5.78;;;16.40;99.90;;;;;;5984295;23;20454;-84
2023/09/13 05:51:00;;;;;;;14.18;5.20;;;16.30;99.90;;;;;;5983173;23;20032;-83
2023/09/13 05:53:25;;;;;;;14.02;5.55;;;16.30;99.90;;;;;;5983421;23;20078;-84
2023/09/13 05:56:04;;;;;;;16.40;5.13;;;16.30;99.90;;;;;;6007782;23;20450;-83
2023/09/13 05:59:42;;;;;;;13.82;5.30;;;16.30;99.90;;;;;;5979367;23;20019;-84
2023/09/13 06:02:34;;;;;;;14.07;3.60;;;16.10;99.90;;;;;;5951516;24;20025;-83
2023/09/13 06:05:03;;;;;;;10.48;2.92;;;16.20;99.90;;;;;;5959559;23;20020;-84
2023/09/13 06:07:54;;;;;;;11.23;2.65;;;16.10;99.90;;;;;;5983855;23;20377;-83
2023/09/13 06:10:41;;;;;;;11.32;2.90;;;16.00;99.90;;;;;;5944925;23;20060;-83
2023/09/13 06:18:06;;;;;;;10.07;2.53;;;15.70;99.90;;;;;;6178395;23;20356;-83
2023/09/13 06:20:35;;;;;;;9.82;2.70;;;15.40;99.90;;;;;;6211965;23;20330;-82
2023/09/13 06:23:19;;;;;;;11.52;2.70;;;15.90;99.90;;;;;;6213620;23;20024;-82
2023/09/13 06:25:46;;;;;;;11.40;2.40;;;15.10;99.90;;;;;;6213925;23;20355;-81
2023/09/13 06:28:17;;;;;;;13.13;2.60;;;15.90;99.90;;;;;;6214410;23;20017;-81
2023/09/13 06:30:43;;;;;;;14.32;2.70;;;14.70;99.90;;;;;;6214769;23;20019;-82
2023/09/13 06:33:09;;;;;;;12.45;2.47;;;15.60;99.90;;;;;;6208424;23;20040;-83
2023/09/13 06:39:15;;;;;;;12.27;2.55;;;14.10;99.90;;;;;;6122015;23;20105;-83
2023/09/13 06:41:41;;;;;;;11.60;2.70;;;14.80;99.90;;;;;;6184956;23;20404;-83
2023/09/13 06:44:09;;;;;;;11.23;2.40;;;14.80;99.90;;;;;;6189514;23;20099;-82
2023/09/13 06:46:38;;;;;;;13.20;2.58;;;13.70;99.90;;;;;;6188271;23;20012;-83
2023/09/13 06:49:04;;;;;;;14.45;3.15;;;14.10;99.90;;;;;;6189573;23;20021;-81
2023/09/13 06:51:30;;;;;;;11.82;2.88;;;14.30;99.90;;;;;;6189166;23;20099;-82
2023/09/13 06:53:56;;;;;;;23.98;3.45;;;13.60;99.90;;;;;;6186303;23;20067;-83
2023/09/13 06:56:22;;;;;;;13.82;2.70;;;13.50;99.90;;;;;;6187272;23;20044;-82
2023/09/13 06:58:47;;;;;;;12.77;2.90;;;14.50;99.90;;;;;;6188378;23;20021;-82
2023/09/13 07:01:13;;;;;;;9.70;2.58;;;13.90;99.90;;;;;;6188054;23;20441;-82
2023/09/13 07:03:39;;;;;;;9.68;2.40;;;13.50;99.90;;;;;;6189288;23;20051;-83
2023/09/13 07:06:11;;;;;;;13.18;2.80;;;13.70;99.90;;;;;;6187271;23;20517;-83
2023/09/13 07:08:37;;;;;;;13.90;3.03;;;13.50;99.90;;;;;;6187964;23;20445;-83
2023/09/13 07:11:18;;;;;;;10.68;2.45;;;14.10;99.90;;;;;;6189455;23;20016;-83
2023/09/13 07:13:57;;;;;;;13.40;2.72;;;13.50;99.90;;;;;;6188854;23;20095;-83
2023/09/13 07:16:32;;;;;;;12.65;2.90;;;13.40;99.90;;;;;;6188719;23;20048;-82
2023/09/13 07:19:12;;;;;;;11.88;2.50;;;13.40;99.90;;;;;;6189351;23;20017;-83
2023/09/13 07:21:41;;;;;;;13.32;2.85;;;14.40;99.90;;;;;;6189348;23;20016;-83
2023/09/13 07:24:09;;;;;;;9.48;2.97;;;13.90;99.90;;;;;;6189098;23;20021;-83
2023/09/13 07:26:53;;;;;;;13.25;2.92;;;13.40;99.90;;;;;;6188890;23;20051;-82
2023/09/13 07:29:18;;;;;;;9.43;3.05;;;14.00;99.90;;;;;;6188418;23;20404;-83
2023/09/13 07:32:02;;;;;;;10.60;2.78;;;14.60;99.90;;;;;;6188986;23;20051;-83
2023/09/13 07:34:29;;;;;;;9.70;2.90;;;13.60;99.90;;;;;;6188200;23;20021;-83
2023/09/13 07:37:09;;;;;;;10.18;2.97;;;13.60;99.90;;;;;;6188280;23;20031;-83
2023/09/13 07:39:36;;;;;;;8.75;2.80;;;14.50;99.90;;;;;;6189476;23;20016;-82
2023/09/13 07:42:17;;;;;;;7.88;2.78;;;13.70;99.90;;;;;;6189487;23;20472;-82
2023/09/13 07:44:59;;;;;;;12.57;3.17;;;13.70;99.90;;;;;;6187455;23;20479;-82
2023/09/13 07:47:40;;;;;;;9.00;2.60;;;13.70;99.90;;;;;;6189382;23;20468;-82
2023/09/13 07:50:28;;;;;;;10.55;3.28;;;13.70;99.90;;;;;;6188383;23;20021;-82
2023/09/13 07:53:03;;;;;;;12.65;2.90;;;13.80;99.90;;;;;;6188887;23;20012;-82
2023/09/13 07:55:47;;;;;;;12.05;3.00;;;13.80;99.90;;;;;;6189317;23;20028;-82
2023/09/13 07:58:13;;;;;;;;;;;13.80;99.90;;;;;;6188505;23;20062;-82
2023/09/13 08:00:38;;;;;;;12.48;3.05;;;13.80;99.90;;;;;;6188769;23;19943;-82
2023/09/13 08:03:13;;;;;;;12.10;3.08;;;13.80;99.90;;;;;;6189718;23;20020;-82
2023/09/13 08:05:47;;;;;;;10.77;3.20;;;14.60;99.90;;;;;;6187604;23;20022;-82
2023/09/13 08:08:22;;;;;;;12.90;3.47;;;13.70;99.90;;;;;;6188484;23;20067;-84
2023/09/13 08:11:14;;;;;;;10.05;2.80;;;13.70;99.90;;;;;;6186572;23;20028;-82
2023/09/13 08:13:46;;;;;;;10.48;2.80;;;14.70;99.90;;;;;;6188691;23;20015;-82
2023/09/13 08:16:21;;;;;;;10.43;3.47;;;13.50;99.90;;;;;;6188940;23;20456;-82
2023/09/13 08:18:47;;;;;;;13.50;3.15;;;13.50;99.90;;;;;;6187294;23;20048;-82
2023/09/13 08:21:21;;;;;;;9.73;2.70;;;13.50;99.90;;;;;;6186495;23;20028;-82
2023/09/13 08:23:59;;;;;;;9.20;2.80;;;13.50;99.90;;;;;;6188191;23;20009;-87
2023/09/13 08:26:41;;;;;;;8.70;3.17;;;13.50;99.90;;;;;;6188200;23;20062;-83
2023/09/13 08:29:06;;;;;;;12.43;3.05;;;13.50;99.90;;;;;;6188239;23;20012;-82
2023/09/13 08:31:50;;;;;;;11.65;3.42;;;13.50;99.90;;;;;;6188748;23;20083;-82
2023/09/13 08:34:16;;;;;;;9.93;2.88;;;13.60;99.90;;;;;;6188286;23;20372;-82
2023/09/13 08:36:59;;;;;;;10.23;2.92;;;13.50;99.90;;;;;;6187731;23;20020;-83
2023/09/13 08:39:25;;;;;;;11.63;3.22;;;13.50;99.90;;;;;;6187490;23;20020;-82
2023/09/13 08:42:13;;;;;;;10.60;2.97;;;13.90;99.90;;;;;;6188595;23;20445;-82
2023/09/13 08:44:40;;;;;;;11.32;3.40;;;13.70;99.90;;;;;;6188297;23;20024;-82
2023/09/13 08:47:10;;;;;;;9.50;3.10;;;13.60;99.90;;;;;;6187823;23;20151;-82
2023/09/13 08:50:47;;;;;;;11.93;3.08;;;13.70;99.90;;;;;;6186650;23;20060;-82
2023/09/13 09:15:42;;;;;;;9.02;2.90;;;13.90;99.90;;;;;;6182952;23;20112;-82
2023/09/13 09:37:28;;;;;;;9.35;3.22;;;14.70;99.90;;;;;;6122625;23;20098;-82
2023/09/13 09:40:26;;;;;;;11.45;3.53;;;15.00;99.90;;;;;;6098224;23;20037;-83
2023/09/13 09:43:36;;;;;;;9.90;2.92;;;14.90;99.90;;;;;;5997205;23;20081;-82
2023/09/13 09:46:49;;;;;;;10.77;3.13;;;14.90;99.90;;;;;;6097881;23;20017;-83
2023/09/13 09:58:35;;;;;;;12.82;2.90;;;14.90;99.90;;;;;;6204007;23;20028;-81
2023/09/13 10:01:16;;;;;;;11.60;3.05;;;14.80;99.90;;;;;;6188433;23;20038;-81
2023/09/13 10:52:29;;;;;;;9.50;2.88;;;16.10;99.90;;;;;;6213945;23;20340;-81
2023/09/13 11:04:07;;;;;;;9.63;2.63;;;16.80;99.90;;;;;;6092557;23;20110;-81
2023/09/13 11:07:27;;;;;;;8.75;2.67;;;16.50;99.90;;;;;;6091006;23;20514;-81
2023/09/13 11:10:19;;;;;;;9.23;2.50;;;16.10;99.90;;;;;;6069572;23;20486;-81
2023/09/13 11:13:13;;;;;;;12.07;2.65;;;15.80;99.90;;;;;;6104377;23;20053;-81
2023/09/13 11:15:49;;;;;;;11.70;2.75;;;16.30;99.90;;;;;;6127209;23;20021;-80
2023/09/13 11:22:51;;;;;;;9.88;2.60;;;15.10;99.90;;;;;;6093873;23;20022;-80
2023/09/13 11:32:52;;;;;;;9.95;2.35;;;15.20;99.90;;;;;;6215674;23;20036;-82
2023/09/13 11:35:49;;;;;;;9.63;2.65;;;15.40;99.90;;;;;;6187079;23;20028;-82
2023/09/13 11:38:16;;;;;;;10.57;2.65;;;15.50;99.90;;;;;;6189311;23;20544;-83
2023/09/13 11:40:56;;;;;;;11.18;2.70;;;15.20;99.90;;;;;;6188166;23;20449;-80
2023/09/13 11:43:37;;;;;;;9.38;2.97;;;16.20;99.90;;;;;;6187821;23;20008;-80
2023/09/13 11:46:27;;;;;;;11.20;2.72;;;16.40;99.90;;;;;;6189180;23;20028;-80
2023/09/13 11:49:10;;;;;;;9.10;2.40;;;16.00;99.90;;;;;;6189041;23;20012;-80
2023/09/13 11:52:03;;;;;;;10.65;2.85;;;16.20;99.90;;;;;;6189136;23;20332;-80
2023/09/13 11:54:49;;;;;;;10.07;2.50;;;16.50;99.90;;;;;;6189228;23;20051;-80
2023/09/13 11:57:53;;;;;;;10.35;2.35;;;16.70;99.90;;;;;;6113538;23;20025;-80
2023/09/13 12:00:22;;;;;;;9.02;2.90;;;16.70;99.90;;;;;;6187988;23;20023;-80
2023/09/13 12:02:48;;;;;;;8.45;2.55;;;17.50;99.90;;;;;;6170199;23;20020;-80
2023/09/13 12:05:15;;;;;;;8.95;2.55;;;17.10;99.90;;;;;;6158208;23;20116;-80
2023/09/13 12:07:56;;;;;;;12.27;2.90;;;17.40;99.90;;;;;;6159003;23;20016;-80
2023/09/13 12:10:37;;;;;;;10.00;2.80;;;17.20;99.90;;;;;;6158555;23;20021;-81
2023/09/13 12:13:12;;;;;;;9.60;2.70;;;17.20;99.90;;;;;;6159335;23;20009;-80
2023/09/13 12:16:00;;;;;;;12.00;2.67;;;17.50;99.90;;;;;;6158916;23;20024;-81
2023/09/13 12:18:26;;;;;;;10.02;2.67;;;17.70;99.90;;;;;;6158399;23;20346;-81
2023/09/13 12:21:10;;;;;;;10.68;2.70;;;17.90;99.90;;;;;;6158691;23;20017;-80
2023/09/13 12:24:36;;;;;;;10.82;2.67;;;18.00;99.90;;;;;;6158959;23;20032;-80
2023/09/13 12:27:06;;;;;;;7.93;2.25;;;18.00;99.90;;;;;;6040800;23;20023;-80
2023/09/13 12:29:51;;;;;;;8.65;2.30;;;17.90;99.90;;;;;;6041852;23;20046;-80
2023/09/13 12:32:16;;;;;;;10.32;2.60;;;18.00;99.90;;;;;;6040748;23;20023;-81
2023/09/13 12:38:13;;;;;;;10.48;2.60;;;17.80;99.90;;;;;;6214917;23;20094;-81
2023/09/13 12:41:11;;;;;;;10.38;2.70;;;17.60;99.90;;;;;;6187254;23;20016;-81
2023/09/13 12:56:20;;;;;;;9.95;2.53;;;17.10;99.90;;;;;;6182782;23;20386;-83
2023/09/13 12:58:47;;;;;;;10.07;2.70;;;16.90;99.90;;;;;;6182637;23;20063;-81
2023/09/13 13:02:08;;;;;;;8.50;2.30;;;17.90;99.90;;;;;;6183336;23;20024;-82
2023/09/13 13:04:42;;;;;;;7.10;2.45;;;18.10;99.90;;;;;;6183006;23;20024;-82
2023/09/13 13:07:33;;;;;;;10.55;2.80;;;17.60;99.90;;;;;;6182917;23;20327;-82
2023/09/13 13:10:21;;;;;;;11.80;2.50;;;17.60;99.90;;;;;;6183384;23;20017;-81
2023/09/13 13:13:07;;;;;;;9.10;2.40;;;17.50;99.90;;;;;;6182246;23;20020;-81
2023/09/13 13:15:48;;;;;;;9.02;2.28;;;17.50;99.90;;;;;;6182161;23;20047;-81
2023/09/13 13:18:14;;;;;;;8.65;2.10;;;17.50;99.90;;;;;;6182990;23;20028;-81
2023/09/13 13:21:06;;;;;;;10.82;2.58;;;17.50;99.90;;;;;;6181599;23;20025;-81
2023/09/13 13:23:35;;;;;;;7.75;2.05;;;17.60;99.90;;;;;;6182941;23;20017;-81
2023/09/13 13:26:09;;;;;;;8.05;2.10;;;17.70;99.90;;;;;;6183341;23;20021;-81
2023/09/13 13:28:35;;;;;;;6.72;2.15;;;18.30;99.90;;;;;;6181984;23;20067;-82
2023/09/13 13:31:07;;;;;;;13.38;2.25;;;17.90;99.90;;;;;;6183161;23;20017;-81
2023/09/13 13:33:37;;;;;;;10.30;2.15;;;17.80;99.90;;;;;;6183044;23;20450;-81
2023/09/13 13:36:09;;;;;;;6.93;2.03;;;17.90;99.90;;;;;;6182644;23;20019;-82
2023/09/13 13:38:35;;;;;;;9.43;2.00;;;18.00;99.90;;;;;;6178769;23;20096;-82
2023/09/13 13:41:19;;;;;;;8.80;2.20;;;18.70;99.90;;;;;;6183078;23;20487;-82
2023/09/13 13:43:54;;;;;;;8.85;2.10;;;18.00;99.90;;;;;;6181755;23;20021;-82
2023/09/13 13:46:28;;;;;;;8.85;2.00;;;18.00;99.90;;;;;;6183175;23;20024;-82
2023/09/13 13:48:58;;;;;;;8.38;2.15;;;18.00;99.90;;;;;;6181641;23;20021;-82
2023/09/13 13:51:31;;;;;;;9.05;2.55;;;18.00;99.90;;;;;;6183383;23;20074;-82
2023/09/13 13:54:31;;;;;;;14.93;2.60;;;17.90;99.90;;;;;;6182540;23;20041;-82
2023/09/13 13:57:03;;;;;;;7.80;2.10;;;17.60;99.90;;;;;;6181919;23;20009;-82
2023/09/13 13:59:42;;;;;;;8.85;1.90;;;17.50;99.90;;;;;;6182437;23;20013;-82
2023/09/13 14:02:08;;;;;;;11.02;2.50;;;17.40;99.90;;;;;;6182519;23;20346;-82
2023/09/13 14:04:34;;;;;;;10.63;2.08;;;17.30;99.90;;;;;;6179708;23;20017;-83
2023/09/13 14:06:59;;;;;;;9.75;2.42;;;17.00;99.90;;;;;;6182914;23;20017;-82
2023/09/13 14:09:37;;;;;;;10.57;2.40;;;17.10;99.90;;;;;;6183362;23;20446;-82
2023/09/13 14:12:15;;;;;;;10.38;2.00;;;16.80;99.90;;;;;;6182723;23;20484;-82
2023/09/13 14:14:49;;;;;;;8.43;2.20;;;17.30;99.90;;;;;;6182623;23;20195;-82
2023/09/13 14:17:23;;;;;;;10.90;2.10;;;16.70;99.90;;;;;;6182036;23;20419;-82
2023/09/13 14:19:49;;;;;;;12.25;1.92;;;16.60;99.90;;;;;;6182303;23;20418;-82
2023/09/13 14:22:18;;;;;;;8.05;2.15;;;16.60;99.90;;;;;;6183498;23;20017;-82
2023/09/13 14:24:43;;;;;;;9.82;2.20;;;16.70;99.90;;;;;;6181079;23;20031;-81
2023/09/13 14:27:09;;;;;;;14.02;2.40;;;16.50;99.90;;;;;;6182751;23;20423;-81
2023/09/13 14:29:35;;;;;;;10.13;2.10;;;16.60;99.90;;;;;;6182259;23;20020;-81
2023/09/13 14:32:01;;;;;;;10.50;2.50;;;17.40;99.90;;;;;;6182362;23;20064;-80
2023/09/13 14:34:39;;;;;;;8.93;2.13;;;17.40;99.90;;;;;;6185002;23;20071;-80
2023/09/13 14:37:08;;;;;;;9.27;2.38;;;16.90;99.90;;;;;;6183339;23;20044;-81
2023/09/13 14:39:34;;;;;;;9.73;1.98;;;16.80;99.90;;;;;;6181601;23;20017;-80
2023/09/13 14:42:06;;;;;;;9.95;2.10;;;16.80;99.90;;;;;;6183182;23;20024;-80
2023/09/13 14:44:33;;;;;;;13.63;2.40;;;16.80;99.90;;;;;;6184272;23;20008;-81
2023/09/13 14:46:59;;;;;;;8.82;1.95;;;16.90;99.90;;;;;;6184028;23;20017;-81
2023/09/13 14:49:26;;;;;;;8.60;2.28;;;17.00;99.90;;;;;;6184816;23;20017;-81
2023/09/13 14:51:52;;;;;;;9.75;2.42;;;17.10;99.90;;;;;;6183721;23;20017;-80
2023/09/13 14:54:18;;;;;;;10.95;2.30;;;17.20;99.90;;;;;;6184758;23;20021;-82
2023/09/13 14:56:45;;;;;;;9.30;2.10;;;17.30;99.90;;;;;;6183996;23;20508;-80
2023/09/13 14:59:11;;;;;;;10.80;2.05;;;17.40;99.90;;;;;;6183528;23;20808;-81
2023/09/13 15:01:36;;;;;;;12.75;2.20;;;17.50;99.90;;;;;;6184425;23;20017;-81
2023/09/13 15:04:02;;;;;;;9.95;2.45;;;17.50;99.90;;;;;;6185904;23;20013;-81
2023/09/13 15:06:29;;;;;;;9.88;2.10;;;17.50;99.90;;;;;;6183641;23;20446;-81
2023/09/13 15:08:56;;;;;;;12.15;2.10;;;17.50;99.90;;;;;;6186101;23;20148;-81
2023/09/13 15:11:25;;;;;;;12.82;2.83;;;17.50;99.90;;;;;;6184258;23;20426;-81
2023/09/13 15:13:50;;;;;;;7.63;2.13;;;17.60;99.90;;;;;;6183306;23;20028;-81
2023/09/13 15:16:16;;;;;;;9.70;2.38;;;17.60;99.90;;;;;;6184694;23;20509;-81
2023/09/13 15:18:42;;;;;;;8.48;2.10;;;17.60;99.90;;;;;;6184685;23;20016;-81
2023/09/13 15:21:07;;;;;;;8.23;2.03;;;17.50;99.90;;;;;;6183928;23;20021;-82
2023/09/13 15:23:33;;;;;;;10.90;2.30;;;17.50;99.90;;;;;;6186420;23;20071;-81
2023/09/13 15:25:59;;;;;;;9.70;2.28;;;17.50;99.90;;;;;;6184576;23;20056;-82
2023/09/13 15:28:24;;;;;;;9.52;2.55;;;17.50;99.90;;;;;;6183672;23;20013;-82
2023/09/13 15:30:51;;;;;;;10.68;2.40;;;17.50;99.90;;;;;;6183920;23;20346;-83
2023/09/13 15:33:16;;;;;;;8.90;2.10;;;17.40;99.90;;;;;;6184551;23;20461;-82
2023/09/13 15:35:50;;;;;;;10.55;2.13;;;17.30;99.90;;;;;;6183380;23;20020;-82
2023/09/13 15:38:16;;;;;;;11.02;2.10;;;17.40;99.90;;;;;;6184508;23;20028;-82
2023/09/13 15:40:54;;;;;;;10.63;2.25;;;17.40;99.90;;;;;;6184246;23;20017;-82
2023/09/13 15:43:23;;;;;;;8.73;1.90;;;17.40;99.90;;;;;;6158786;23;20020;-82
2023/09/13 15:46:12;;;;;;;7.38;1.98;;;17.50;99.90;;;;;;6184085;23;20051;-81
2023/09/13 15:48:43;;;;;;;9.38;2.33;;;17.40;99.90;;;;;;6183343;23;20516;-81
2023/09/13 15:51:18;;;;;;;9.70;2.15;;;17.50;99.90;;;;;;6184356;23;20020;-81
2023/09/13 15:53:44;;;;;;;7.22;1.90;;;17.50;99.90;;;;;;6183951;23;20342;-79
2023/09/13 15:56:10;;;;;;;8.75;2.10;;;18.30;99.90;;;;;;6182029;23;20013;-81
2023/09/13 15:58:36;;;;;;;9.73;2.40;;;17.60;99.90;;;;;;6181463;23;20060;-81
2023/09/13 16:01:13;;;;;;;14.50;2.47;;;18.10;99.90;;;;;;6184381;23;20013;-81